Time;durP1;ratioP1;P1;durP2;ratioP2;P2;SDS_P1;SDS_P2;PMS_P1;PMS_P2;Temp;Humidity;BMP_temperature;BMP_pressure;BME280_temperature;BME280_humidity;BME280_pressure;Samples;Min_cycle;Max_cycle;Signal;HPM_P1;HPM_P2
2022/10/29 00:00:57;;;;;;;321.80;309.03;;;14.90;99.90;;;;;;4985034;28;20474;-84
2022/10/29 00:03:24;;;;;;;319.57;307.17;;;14.90;99.90;;;;;;4985195;28;20455;-84
2022/10/29 00:05:59;;;;;;;316.97;304.77;;;14.90;99.90;;;;;;4984623;28;20480;-84
2022/10/29 00:08:27;;;;;;;337.63;324.43;;;14.90;99.90;;;;;;4985137;28;20462;-85
2022/10/29 00:10:54;;;;;;;331.80;318.97;;;14.90;99.90;;;;;;4984404;28;20475;-85
2022/10/29 00:13:22;;;;;;;359.00;344.80;;;15.00;99.90;;;;;;4985158;28;20462;-85
2022/10/29 00:15:49;;;;;;;358.00;344.30;;;15.00;99.90;;;;;;4984737;28;20473;-84
2022/10/29 00:18:15;;;;;;;372.87;358.43;;;14.90;99.90;;;;;;4985300;28;20449;-83
2022/10/29 00:20:42;;;;;;;379.43;365.03;;;14.90;99.90;;;;;;4985563;28;20983;-84
2022/10/29 00:23:09;;;;;;;386.60;371.37;;;14.80;99.90;;;;;;4984685;28;20459;-85
2022/10/29 00:25:35;;;;;;;396.87;381.00;;;14.80;99.90;;;;;;4983629;28;20460;-84
2022/10/29 00:28:02;;;;;;;405.20;388.47;;;14.70;99.90;;;;;;4983961;28;20544;-85
2022/10/29 00:30:30;;;;;;;411.87;394.40;;;14.70;99.90;;;;;;4985411;28;20454;-85
2022/10/29 00:32:57;;;;;;;440.53;421.73;;;14.60;99.90;;;;;;4984084;28;20471;-84
2022/10/29 00:35:25;;;;;;;465.33;444.53;;;14.60;99.90;;;;;;4984876;28;20463;-85
2022/10/29 00:37:51;;;;;;;432.97;414.50;;;14.60;99.90;;;;;;4984933;28;20451;-84
2022/10/29 00:40:20;;;;;;;446.50;426.90;;;14.60;99.90;;;;;;4985114;28;20459;-85
2022/10/29 00:42:47;;;;;;;432.63;413.73;;;14.70;99.90;;;;;;4984121;28;20512;-85
2022/10/29 00:45:19;;;;;;;449.17;428.33;;;14.60;99.90;;;;;;4984635;28;20459;-85
2022/10/29 00:47:51;;;;;;;442.13;422.33;;;14.70;99.90;;;;;;4985153;28;20483;-84
2022/10/29 00:50:20;;;;;;;448.90;429.23;;;14.60;99.90;;;;;;4984573;28;20460;-83
2022/10/29 00:52:49;;;;;;;464.50;442.77;;;14.60;99.90;;;;;;4984897;28;20479;-84
2022/10/29 00:55:17;;;;;;;462.87;441.60;;;14.60;99.90;;;;;;4985156;28;20460;-85
2022/10/29 00:57:48;;;;;;;445.40;426.13;;;14.60;99.90;;;;;;4984479;28;20451;-84
2022/10/29 01:00:17;;;;;;;457.90;436.33;;;14.60;99.90;;;;;;4984212;28;20467;-84
2022/10/29 01:02:44;;;;;;;450.13;429.37;;;14.60;99.90;;;;;;4984999;28;20483;-84
2022/10/29 01:05:15;;;;;;;476.07;453.77;;;14.60;99.90;;;;;;4984628;28;20483;-84
2022/10/29 01:07:42;;;;;;;478.30;455.50;;;14.60;99.90;;;;;;4984493;28;20478;-84
2022/10/29 01:10:10;;;;;;;477.67;455.40;;;14.50;99.90;;;;;;4984423;28;20459;-85
2022/10/29 01:13:06;;;;;;;481.03;458.43;;;14.50;99.90;;;;;;4984347;28;20475;-84
2022/10/29 01:15:43;;;;;;;479.80;457.43;;;14.50;99.90;;;;;;4984872;28;20466;-85
2022/10/29 01:18:18;;;;;;;491.00;467.60;;;14.50;99.90;;;;;;4984221;28;20449;-84
2022/10/29 01:21:35;;;;;;;490.67;467.13;;;14.50;99.90;;;;;;4984208;28;20455;-84
2022/10/29 01:24:33;;;;;;;509.27;483.53;;;14.40;99.90;;;;;;4980541;28;20463;-84
2022/10/29 01:27:26;;;;;;;508.90;484.00;;;14.40;99.90;;;;;;4958289;28;20483;-84
2022/10/29 01:30:09;;;;;;;544.40;517.37;;;14.30;99.90;;;;;;4984387;28;20466;-85
2022/10/29 01:32:49;;;;;;;584.50;554.90;;;14.30;99.90;;;;;;4983994;28;20984;-85
2022/10/29 01:35:23;;;;;;;577.67;547.13;;;14.20;99.90;;;;;;4984636;28;20462;-84
2022/10/29 01:37:58;;;;;;;585.43;554.00;;;14.30;99.90;;;;;;4984787;28;20447;-84
2022/10/29 01:40:27;;;;;;;583.63;552.33;;;14.20;99.90;;;;;;4983998;28;20479;-84
2022/10/29 01:43:01;;;;;;;567.93;538.30;;;14.20;99.90;;;;;;4984211;28;20483;-85
2022/10/29 01:45:35;;;;;;;560.80;531.90;;;14.20;99.90;;;;;;4986751;28;20466;-84
2022/10/29 01:48:08;;;;;;;556.17;528.47;;;14.20;99.90;;;;;;4987427;28;20481;-84
2022/10/29 01:50:39;;;;;;;557.53;528.93;;;14.30;99.90;;;;;;4986743;28;20461;-85
2022/10/29 01:53:07;;;;;;;556.23;528.43;;;14.30;99.90;;;;;;4987972;28;20462;-84
2022/10/29 01:55:35;;;;;;;560.50;532.07;;;14.20;99.90;;;;;;4987545;28;20474;-84
2022/10/29 01:58:02;;;;;;;550.00;522.93;;;14.20;99.90;;;;;;4987515;28;20486;-84
2022/10/29 02:00:34;;;;;;;557.20;529.63;;;14.10;99.90;;;;;;4986920;28;20965;-85
2022/10/29 02:03:15;;;;;;;583.90;553.50;;;14.10;99.90;;;;;;4988240;28;20454;-85
2022/10/29 02:05:51;;;;;;;573.30;544.40;;;14.10;99.90;;;;;;4987250;28;20470;-85
2022/10/29 02:08:28;;;;;;;573.70;544.70;;;14.10;99.90;;;;;;4986123;28;20536;-84
2022/10/29 02:11:02;;;;;;;571.23;541.73;;;14.10;99.90;;;;;;4984175;28;20497;-84
2022/10/29 02:13:31;;;;;;;573.30;543.70;;;14.10;99.90;;;;;;4985842;28;20454;-84
2022/10/29 02:16:00;;;;;;;584.97;553.97;;;14.10;99.90;;;;;;4986515;28;20457;-85
2022/10/29 02:18:28;;;;;;;636.47;600.57;;;14.10;99.90;;;;;;4986807;28;20473;-84
2022/10/29 02:20:54;;;;;;;622.77;588.77;;;14.10;99.90;;;;;;4986402;28;20995;-86
2022/10/29 02:23:21;;;;;;;631.87;595.97;;;14.10;99.90;;;;;;4985886;28;20462;-84
2022/10/29 02:25:48;;;;;;;649.17;612.60;;;14.10;99.90;;;;;;4986394;28;20450;-85
2022/10/29 02:28:15;;;;;;;637.50;602.20;;;14.20;99.90;;;;;;4986265;28;20831;-84
2022/10/29 02:30:41;;;;;;;652.97;616.10;;;14.10;99.90;;;;;;4986432;28;20459;-84
2022/10/29 02:33:08;;;;;;;651.50;615.40;;;14.10;99.90;;;;;;4986570;28;20454;-84
2022/10/29 02:35:36;;;;;;;649.17;611.67;;;14.00;99.90;;;;;;4986277;28;20459;-84
2022/10/29 02:38:03;;;;;;;606.60;572.80;;;14.10;99.90;;;;;;4986696;28;20462;-83
2022/10/29 02:40:29;;;;;;;613.93;580.20;;;14.00;99.90;;;;;;4986254;28;20549;-84
2022/10/29 02:42:56;;;;;;;645.40;609.00;;;14.00;99.90;;;;;;4986018;28;20489;-84
2022/10/29 02:45:23;;;;;;;685.97;645.37;;;14.00;99.90;;;;;;4986469;28;20459;-84
2022/10/29 02:47:50;;;;;;;661.53;623.20;;;14.10;99.90;;;;;;4986167;28;20474;-84
2022/10/29 02:50:16;;;;;;;644.20;606.97;;;14.10;99.90;;;;;;4986217;28;20451;-85
2022/10/29 02:52:44;;;;;;;657.87;619.73;;;14.10;99.90;;;;;;4986153;28;20471;-84
2022/10/29 02:55:11;;;;;;;663.80;625.70;;;14.00;99.90;;;;;;4985415;28;20460;-85
2022/10/29 02:57:38;;;;;;;668.27;629.40;;;14.10;99.90;;;;;;4986534;28;20972;-84
2022/10/29 03:00:05;;;;;;;666.73;628.20;;;14.00;99.90;;;;;;4986259;28;20466;-84
2022/10/29 03:02:32;;;;;;;672.80;633.93;;;14.10;99.90;;;;;;4986087;28;20479;-84
2022/10/29 03:04:59;;;;;;;662.50;624.40;;;14.00;99.90;;;;;;4986618;28;20462;-85
2022/10/29 03:07:25;;;;;;;647.10;609.83;;;14.00;99.90;;;;;;4986346;28;21025;-84
2022/10/29 03:09:53;;;;;;;676.50;637.33;;;14.00;99.90;;;;;;4986085;28;20462;-84
2022/10/29 03:12:20;;;;;;;677.63;639.50;;;14.20;99.90;;;;;;4986237;28;20858;-84
2022/10/29 03:14:47;;;;;;;662.27;625.20;;;14.10;99.90;;;;;;4985782;28;20451;-84
2022/10/29 03:17:13;;;;;;;657.17;619.50;;;14.10;99.90;;;;;;4985876;28;20447;-84
2022/10/29 03:19:40;;;;;;;672.33;634.07;;;14.10;99.90;;;;;;4986227;28;20459;-84
2022/10/29 03:22:07;;;;;;;666.67;629.47;;;14.10;99.90;;;;;;4985759;28;20475;-84
2022/10/29 03:24:33;;;;;;;671.10;632.80;;;14.00;99.90;;;;;;4986158;28;20459;-85
2022/10/29 03:27:01;;;;;;;678.30;639.80;;;14.00;99.90;;;;;;4985269;28;20486;-83
2022/10/29 03:29:28;;;;;;;697.27;657.97;;;14.00;99.90;;;;;;4985853;28;20465;-85
2022/10/29 03:31:55;;;;;;;714.10;673.20;;;13.90;99.90;;;;;;4985510;28;20493;-84
2022/10/29 03:34:22;;;;;;;708.93;669.23;;;13.90;99.90;;;;;;4984838;28;20455;-84
2022/10/29 03:36:49;;;;;;;749.37;704.77;;;13.80;99.90;;;;;;4986095;28;20474;-85
2022/10/29 03:39:15;;;;;;;776.03;728.40;;;13.80;99.90;;;;;;4985443;28;20821;-84
2022/10/29 03:41:42;;;;;;;777.83;730.43;;;13.70;99.90;;;;;;4985143;28;20482;-84
2022/10/29 03:44:10;;;;;;;783.80;736.43;;;13.70;99.90;;;;;;4985553;28;20529;-84
2022/10/29 03:46:37;;;;;;;769.80;724.70;;;13.70;99.90;;;;;;4985378;28;20463;-84
2022/10/29 03:49:03;;;;;;;765.27;721.60;;;13.60;99.90;;;;;;4985805;28;20462;-85
2022/10/29 03:51:30;;;;;;;765.63;720.97;;;13.50;99.90;;;;;;4984336;28;20467;-84
2022/10/29 03:53:57;;;;;;;774.37;729.07;;;13.50;99.90;;;;;;4985092;28;20450;-85
2022/10/29 03:56:24;;;;;;;797.17;749.83;;;13.50;99.90;;;;;;4985235;28;20470;-84
2022/10/29 03:58:50;;;;;;;805.13;755.23;;;13.40;99.90;;;;;;4984416;28;20447;-84
2022/10/29 04:01:18;;;;;;;817.33;764.23;;;13.40;99.90;;;;;;4985547;28;20470;-84
2022/10/29 04:03:45;;;;;;;811.60;758.90;;;13.30;99.90;;;;;;4985202;28;20454;-85
2022/10/29 04:06:14;;;;;;;781.20;732.13;;;13.40;99.90;;;;;;4984815;28;20450;-84
2022/10/29 04:08:41;;;;;;;763.43;717.33;;;13.40;99.90;;;;;;4985107;28;20487;-84
2022/10/29 04:11:10;;;;;;;765.53;719.20;;;13.30;99.90;;;;;;4984543;28;20493;-84
2022/10/29 04:13:36;;;;;;;796.50;745.23;;;13.30;99.90;;;;;;4985100;28;20872;-84
2022/10/29 04:16:03;;;;;;;773.47;722.13;;;13.30;99.90;;;;;;4984817;28;20458;-84
2022/10/29 04:18:31;;;;;;;782.83;729.70;;;13.40;99.90;;;;;;4984423;28;20458;-85
2022/10/29 04:21:01;;;;;;;765.97;712.07;;;13.40;99.90;;;;;;4984367;28;20486;-84
2022/10/29 04:23:27;;;;;;;770.07;716.47;;;13.50;99.90;;;;;;4983798;28;20820;-85
2022/10/29 04:25:56;;;;;;;787.20;732.60;;;13.50;99.90;;;;;;4985048;28;20466;-84
2022/10/29 04:28:23;;;;;;;777.20;723.67;;;13.60;99.90;;;;;;4984820;28;20478;-85
2022/10/29 04:30:50;;;;;;;788.87;734.80;;;13.50;99.90;;;;;;4984333;28;20451;-85
2022/10/29 04:33:17;;;;;;;810.27;754.37;;;13.50;99.90;;;;;;4984623;28;20455;-85
2022/10/29 04:35:51;;;;;;;808.47;753.33;;;13.50;99.90;;;;;;4985557;28;20458;-85
2022/10/29 04:38:17;;;;;;;795.23;740.50;;;13.50;99.90;;;;;;4984020;28;20451;-85
2022/10/29 04:40:44;;;;;;;803.27;745.77;;;13.60;99.90;;;;;;4984008;28;20466;-86
2022/10/29 04:43:11;;;;;;;806.23;747.67;;;13.60;99.90;;;;;;4984091;28;20454;-85
2022/10/29 04:45:37;;;;;;;764.73;708.20;;;13.70;99.90;;;;;;4984437;28;20465;-85
2022/10/29 04:48:06;;;;;;;755.60;701.20;;;13.80;99.90;;;;;;4985267;28;20999;-85
2022/10/29 04:50:33;;;;;;;761.33;708.50;;;13.90;99.90;;;;;;4983948;28;20847;-85
2022/10/29 04:53:03;;;;;;;760.63;708.53;;;13.90;99.90;;;;;;4982836;28;20466;-85
2022/10/29 04:55:29;;;;;;;757.13;705.67;;;13.90;99.90;;;;;;4981731;28;20466;-86
2022/10/29 04:57:57;;;;;;;749.50;698.63;;;13.90;99.90;;;;;;4981382;28;20454;-85
2022/10/29 05:00:24;;;;;;;741.90;692.10;;;13.90;99.90;;;;;;4982424;28;20458;-84
2022/10/29 05:02:52;;;;;;;748.10;699.00;;;13.90;99.90;;;;;;4985052;28;20497;-86
2022/10/29 05:05:20;;;;;;;750.53;701.03;;;13.90;99.90;;;;;;4983599;28;20455;-85
2022/10/29 05:07:47;;;;;;;741.67;693.27;;;13.90;99.90;;;;;;4982761;28;20475;-86
2022/10/29 05:10:15;;;;;;;764.87;714.17;;;13.80;99.90;;;;;;4985324;28;21038;-85
2022/10/29 05:12:42;;;;;;;759.63;708.20;;;13.90;99.90;;;;;;4985644;28;20483;-85
2022/10/29 05:15:09;;;;;;;771.77;720.77;;;13.90;99.90;;;;;;4996155;28;20976;-85
2022/10/29 05:17:37;;;;;;;761.53;711.33;;;13.80;99.90;;;;;;4995741;28;20431;-85
2022/10/29 05:20:05;;;;;;;771.43;721.43;;;13.90;99.90;;;;;;4999803;28;20479;-85
2022/10/29 05:22:31;;;;;;;795.60;742.57;;;13.80;99.90;;;;;;4999091;28;20472;-85
2022/10/29 05:24:58;;;;;;;796.97;742.20;;;13.80;99.90;;;;;;4990429;28;20455;-85
2022/10/29 05:27:26;;;;;;;793.57;739.47;;;13.80;99.90;;;;;;4986085;28;20479;-85
2022/10/29 05:29:53;;;;;;;780.50;730.17;;;13.90;99.90;;;;;;4987493;28;20465;-86
2022/10/29 05:32:20;;;;;;;780.10;729.73;;;13.70;99.90;;;;;;4985931;28;20513;-85
2022/10/29 05:34:46;;;;;;;789.70;738.30;;;13.70;99.90;;;;;;4987325;28;20533;-85
2022/10/29 05:37:13;;;;;;;780.70;729.53;;;13.60;99.90;;;;;;4987896;28;20458;-86
2022/10/29 05:39:40;;;;;;;795.90;743.80;;;13.50;99.90;;;;;;4987338;28;20461;-85
2022/10/29 05:42:06;;;;;;;795.57;742.23;;;13.40;99.90;;;;;;4985718;28;20482;-85
2022/10/29 05:44:34;;;;;;;803.40;748.37;;;13.40;99.90;;;;;;4987510;28;20459;-86
2022/10/29 05:47:01;;;;;;;818.13;759.20;;;13.20;99.90;;;;;;4987429;28;20462;-85
2022/10/29 05:49:28;;;;;;;826.67;765.00;;;13.20;99.90;;;;;;4987218;28;20478;-85
2022/10/29 05:51:55;;;;;;;825.40;762.50;;;13.10;99.90;;;;;;4985721;28;20475;-85
2022/10/29 05:54:21;;;;;;;826.70;760.87;;;13.10;99.90;;;;;;4982629;28;20913;-86
2022/10/29 05:56:48;;;;;;;822.93;757.13;;;13.20;99.90;;;;;;4983521;28;20481;-86
2022/10/29 05:59:15;;;;;;;815.67;750.50;;;13.20;99.90;;;;;;4984351;28;20463;-86
2022/10/29 06:01:43;;;;;;;811.87;746.70;;;13.30;99.90;;;;;;4984418;28;20475;-85
2022/10/29 06:04:10;;;;;;;809.80;744.97;;;13.30;99.90;;;;;;4985089;28;20808;-87
2022/10/29 06:06:36;;;;;;;815.67;750.87;;;13.40;99.90;;;;;;4986158;28;20455;-86
2022/10/29 06:09:03;;;;;;;815.63;752.53;;;13.40;99.90;;;;;;4987242;28;20482;-87
2022/10/29 06:11:30;;;;;;;807.23;744.43;;;13.50;99.90;;;;;;4987930;28;20466;-85
2022/10/29 06:13:57;;;;;;;812.73;748.90;;;13.50;99.90;;;;;;4987645;28;20459;-85
2022/10/29 06:16:23;;;;;;;815.07;752.17;;;13.60;99.90;;;;;;4989341;28;20465;-86
2022/10/29 06:18:51;;;;;;;805.83;743.17;;;13.60;99.90;;;;;;4987384;28;20447;-86
2022/10/29 06:21:18;;;;;;;808.90;747.63;;;13.60;99.90;;;;;;4986476;28;20483;-85
2022/10/29 06:23:45;;;;;;;831.57;770.83;;;13.70;99.90;;;;;;4986411;28;20467;-85
2022/10/29 06:26:14;;;;;;;816.80;756.23;;;13.80;99.90;;;;;;4987345;28;20455;-86
2022/10/29 06:28:41;;;;;;;822.10;761.70;;;13.80;99.90;;;;;;4988652;28;20485;-85
2022/10/29 06:31:08;;;;;;;802.13;745.47;;;13.80;99.90;;;;;;4987447;28;21006;-86
2022/10/29 06:33:34;;;;;;;783.30;728.60;;;13.80;99.90;;;;;;4988222;28;20450;-87
2022/10/29 06:36:03;;;;;;;782.13;729.57;;;13.90;99.90;;;;;;4988493;28;20466;-86
2022/10/29 06:38:29;;;;;;;737.67;689.50;;;14.00;99.90;;;;;;4985845;28;20549;-86
2022/10/29 06:40:56;;;;;;;727.70;680.50;;;14.10;99.90;;;;;;4986865;28;20999;-86
2022/10/29 06:43:23;;;;;;;687.73;646.10;;;14.20;99.90;;;;;;4987528;28;20453;-85
2022/10/29 06:45:50;;;;;;;686.33;646.53;;;14.20;99.90;;;;;;4987443;28;20466;-86
2022/10/29 06:48:17;;;;;;;687.60;648.73;;;14.20;99.90;;;;;;4988191;28;20494;-85
2022/10/29 06:50:43;;;;;;;682.80;645.20;;;14.10;99.90;;;;;;4986973;28;20869;-85
2022/10/29 06:53:13;;;;;;;689.37;650.87;;;14.00;99.90;;;;;;4988978;28;20462;-85
2022/10/29 06:55:40;;;;;;;694.67;655.67;;;14.00;99.90;;;;;;4983527;28;20528;-87
2022/10/29 06:58:10;;;;;;;703.57;664.10;;;13.90;99.90;;;;;;4983540;28;20451;-87
2022/10/29 07:00:37;;;;;;;699.70;659.67;;;13.90;99.90;;;;;;4983397;28;20482;-86
2022/10/29 07:03:04;;;;;;;715.13;673.70;;;13.90;99.90;;;;;;4984123;28;20462;-86
2022/10/29 07:05:32;;;;;;;732.07;688.47;;;13.90;99.90;;;;;;4984001;28;20462;-86
2022/10/29 07:08:00;;;;;;;737.63;692.57;;;13.80;99.90;;;;;;4983279;28;20479;-86
2022/10/29 07:10:30;;;;;;;747.27;700.37;;;13.80;99.90;;;;;;4982971;28;20462;-85
2022/10/29 07:12:56;;;;;;;741.13;693.50;;;13.90;99.90;;;;;;4984261;28;20482;-85
2022/10/29 07:15:24;;;;;;;732.37;685.80;;;14.10;99.90;;;;;;4983427;28;20465;-86
2022/10/29 07:17:58;;;;;;;709.83;665.43;;;14.20;99.90;;;;;;4983059;28;20459;-86
2022/10/29 07:20:27;;;;;;;680.17;639.97;;;14.30;99.90;;;;;;4982754;28;20538;-86
2022/10/29 07:22:54;;;;;;;659.17;621.93;;;14.40;99.90;;;;;;4983406;28;20818;-86
2022/10/29 07:25:21;;;;;;;600.83;568.47;;;14.40;99.90;;;;;;4982690;28;20475;-86
2022/10/29 07:27:49;;;;;;;582.50;552.70;;;14.50;99.90;;;;;;4982435;28;20459;-86
2022/10/29 07:30:16;;;;;;;555.83;527.93;;;14.50;99.90;;;;;;4982551;28;20467;-86
2022/10/29 07:32:42;;;;;;;531.77;505.80;;;14.60;99.90;;;;;;4981646;28;20478;-86
2022/10/29 07:35:09;;;;;;;515.60;490.30;;;14.60;99.90;;;;;;4982011;28;20451;-86
2022/10/29 07:37:36;;;;;;;506.80;483.60;;;14.60;99.90;;;;;;4981436;28;20487;-86
2022/10/29 07:40:03;;;;;;;498.13;475.60;;;14.70;99.90;;;;;;4981773;28;20957;-85
2022/10/29 07:42:30;;;;;;;468.70;447.07;;;14.80;99.90;;;;;;4981718;28;20847;-85
2022/10/29 07:44:58;;;;;;;405.83;387.43;;;14.90;99.90;;;;;;4983460;28;20960;-86
2022/10/29 07:47:25;;;;;;;329.67;315.03;;;15.10;99.90;;;;;;4983132;28;20455;-86
2022/10/29 07:49:54;;;;;;;296.40;282.80;;;15.20;99.90;;;;;;4982812;28;20494;-86
2022/10/29 07:52:21;;;;;;;260.50;248.60;;;15.30;99.90;;;;;;4982879;28;20652;-86
2022/10/29 07:54:51;;;;;;;237.53;227.40;;;15.40;99.90;;;;;;4983461;28;20460;-87
2022/10/29 07:57:18;;;;;;;194.90;186.73;;;15.60;99.90;;;;;;4978989;28;20451;-86
2022/10/29 07:59:45;;;;;;;177.83;169.73;;;15.60;99.90;;;;;;4980929;28;20957;-86
2022/10/29 08:02:13;;;;;;;157.50;150.83;;;15.70;99.90;;;;;;4982305;28;20483;-86
2022/10/29 08:04:40;;;;;;;139.47;133.03;;;15.70;99.90;;;;;;4983453;28;20965;-86
2022/10/29 08:07:07;;;;;;;121.10;115.80;;;15.80;99.90;;;;;;4982936;28;20460;-86
2022/10/29 08:09:33;;;;;;;111.00;105.90;;;15.90;99.90;;;;;;4982722;28;20487;-86
2022/10/29 08:12:00;;;;;;;100.47;95.17;;;15.90;99.90;;;;;;4982344;28;20484;-86
2022/10/29 08:14:27;;;;;;;81.87;77.87;;;16.10;99.90;;;;;;4983364;28;20461;-86
2022/10/29 08:16:54;;;;;;;49.80;46.67;;;16.30;99.90;;;;;;4982797;28;20461;-85
2022/10/29 08:19:22;;;;;;;36.47;33.27;;;16.40;99.90;;;;;;4983632;28;20449;-86
2022/10/29 08:21:49;;;;;;;22.70;20.63;;;16.50;99.90;;;;;;4982534;28;20484;-85
2022/10/29 08:24:16;;;;;;;19.33;17.63;;;16.60;99.90;;;;;;4983463;28;20469;-85
2022/10/29 08:26:42;;;;;;;19.20;17.50;;;16.80;99.90;;;;;;4982798;28;21024;-86
2022/10/29 08:29:09;;;;;;;20.67;16.13;;;16.90;99.90;;;;;;4981710;28;20482;-86
2022/10/29 08:31:36;;;;;;;22.73;16.20;;;17.00;99.90;;;;;;4982414;28;20484;-86
2022/10/29 08:34:06;;;;;;;19.10;15.67;;;17.10;99.90;;;;;;4982472;28;20467;-86
2022/10/29 08:36:34;;;;;;;18.20;14.70;;;17.20;99.90;;;;;;4981627;28;20468;-86
2022/10/29 08:39:01;;;;;;;15.30;10.83;;;17.40;99.90;;;;;;4982194;28;20451;-86
2022/10/29 08:41:52;;;;;;;18.93;11.27;;;17.50;99.90;;;;;;4982439;28;20478;-86
2022/10/29 08:44:43;;;;;;;14.43;8.90;;;17.90;99.90;;;;;;4982692;28;20459;-86
2022/10/29 08:47:14;;;;;;;14.23;8.13;;;18.10;99.90;;;;;;4983198;28;20973;-87
2022/10/29 08:49:46;;;;;;;20.40;7.13;;;18.40;99.90;;;;;;4983490;28;20488;-86
2022/10/29 08:52:19;;;;;;;16.33;8.03;;;18.50;99.90;;;;;;4982300;28;20480;-86
2022/10/29 08:54:51;;;;;;;15.67;7.30;;;18.70;99.90;;;;;;4982207;28;20524;-86
2022/10/29 08:57:23;;;;;;;15.50;7.20;;;18.80;99.90;;;;;;4981957;28;20468;-86
2022/10/29 09:00:04;;;;;;;14.70;6.63;;;18.80;99.90;;;;;;4982811;28;20456;-86
2022/10/29 09:02:31;;;;;;;26.13;6.67;;;19.20;99.90;;;;;;4981965;28;20475;-86
2022/10/29 09:05:01;;;;;;;13.43;6.77;;;19.20;99.90;;;;;;4981828;28;20465;-86
2022/10/29 09:08:00;;;;;;;15.93;7.00;;;19.20;99.90;;;;;;4981809;28;20450;-84
2022/10/29 09:10:33;;;;;;;16.10;6.93;;;19.30;99.90;;;;;;4978710;28;20483;-84
2022/10/29 09:13:17;;;;;;;23.40;7.77;;;19.20;99.90;;;;;;4981726;28;20485;-86
2022/10/29 09:16:01;;;;;;;18.30;7.10;;;19.20;99.90;;;;;;4980487;28;20996;-87
2022/10/29 09:18:43;;;;;;;16.13;7.50;;;19.20;99.90;;;;;;4982107;28;20456;-86
2022/10/29 09:21:21;;;;;;;18.27;7.97;;;19.30;99.90;;;;;;4981849;28;20510;-86
2022/10/29 09:24:00;;;;;;;13.47;6.70;;;19.50;99.90;;;;;;4981554;28;20468;-87
2022/10/29 09:26:32;;;;;;;13.73;6.00;;;19.50;99.70;;;;;;4982209;28;20469;-86
2022/10/29 09:29:20;;;;;;;11.80;7.00;;;19.70;99.40;;;;;;4982336;28;20478;-86
2022/10/29 09:31:50;;;;;;;12.67;6.27;;;19.70;99.30;;;;;;4982939;28;20482;-87
2022/10/29 09:34:25;;;;;;;13.07;6.77;;;19.80;98.80;;;;;;4982151;28;20460;-87
2022/10/29 09:36:53;;;;;;;19.00;7.77;;;20.00;98.80;;;;;;4983103;28;20464;-84
2022/10/29 09:39:28;;;;;;;16.87;6.33;;;20.40;99.00;;;;;;4981867;28;20521;-84
2022/10/29 09:41:57;;;;;;;12.90;5.60;;;20.50;97.80;;;;;;4983107;28;20482;-84
2022/10/29 09:44:35;;;;;;;16.03;6.37;;;20.60;97.30;;;;;;4981771;28;20469;-84
2022/10/29 09:47:13;;;;;;;15.40;6.40;;;20.70;96.90;;;;;;4981994;28;20454;-84
2022/10/29 09:49:54;;;;;;;18.13;6.63;;;20.70;95.40;;;;;;4982116;28;20479;-84
2022/10/29 09:52:22;;;;;;;11.40;5.90;;;20.90;95.70;;;;;;4982655;28;20549;-85
2022/10/29 09:54:53;;;;;;;14.70;6.27;;;20.80;95.40;;;;;;4982904;28;20466;-85
2022/10/29 09:57:23;;;;;;;12.00;5.30;;;20.80;95.40;;;;;;4981928;28;21006;-85
2022/10/29 09:59:53;;;;;;;13.70;5.90;;;20.60;95.30;;;;;;4982471;28;20454;-84
2022/10/29 10:02:28;;;;;;;13.43;5.60;;;20.50;95.30;;;;;;4982843;28;20489;-84
2022/10/29 10:04:57;;;;;;;17.40;6.03;;;20.50;96.00;;;;;;4982110;28;20465;-85
2022/10/29 10:07:23;;;;;;;13.00;6.17;;;20.40;96.40;;;;;;4986743;28;20461;-85
2022/10/29 10:10:04;;;;;;;13.07;6.83;;;20.30;95.80;;;;;;4986647;28;20478;-84
2022/10/29 10:12:51;;;;;;;18.63;7.37;;;20.10;95.90;;;;;;4986035;28;20484;-84
2022/10/29 10:15:23;;;;;;;19.17;6.03;;;20.20;95.20;;;;;;4986192;28;20450;-84
2022/10/29 10:17:57;;;;;;;16.70;6.90;;;20.30;96.00;;;;;;4986427;28;20468;-85
2022/10/29 10:20:38;;;;;;;11.23;6.57;;;20.10;95.60;;;;;;4985083;28;20461;-84
2022/10/29 10:23:21;;;;;;;15.47;6.40;;;20.20;96.00;;;;;;4984800;28;20464;-85
2022/10/29 10:25:51;;;;;;;16.13;9.60;;;20.30;96.50;;;;;;4983478;28;20955;-85
2022/10/29 10:28:23;;;;;;;16.23;6.07;;;20.20;96.20;;;;;;4986095;28;20480;-85
2022/10/29 10:31:11;;;;;;;13.17;6.03;;;20.00;96.90;;;;;;4985659;28;20498;-85
2022/10/29 10:33:49;;;;;;;15.13;6.73;;;19.90;96.70;;;;;;4986628;28;20462;-84
2022/10/29 10:36:16;;;;;;;16.90;6.70;;;20.00;97.30;;;;;;4986785;28;20674;-83
2022/10/29 10:38:45;;;;;;;17.73;7.30;;;19.90;96.50;;;;;;4985674;28;20457;-82
2022/10/29 10:41:14;;;;;;;20.57;7.10;;;19.90;96.60;;;;;;4985795;28;20467;-83
2022/10/29 10:43:46;;;;;;;17.73;6.20;;;19.90;96.70;;;;;;4985579;28;20457;-83
2022/10/29 10:46:17;;;;;;;10.63;5.80;;;19.60;97.10;;;;;;4985679;28;20514;-82
2022/10/29 10:48:44;;;;;;;22.10;7.27;;;19.50;97.60;;;;;;4986166;28;20456;-83
2022/10/29 10:51:27;;;;;;;20.10;6.10;;;19.50;97.90;;;;;;4985621;28;20479;-82
2022/10/29 10:53:54;;;;;;;19.20;7.07;;;19.60;98.00;;;;;;4985576;28;20457;-83
2022/10/29 10:56:22;;;;;;;14.77;5.97;;;19.70;97.70;;;;;;4985401;28;20460;-83
2022/10/29 10:58:56;;;;;;;18.97;6.30;;;19.90;97.80;;;;;;4985325;28;20471;-82
2022/10/29 11:01:29;;;;;;;17.63;6.97;;;20.10;97.30;;;;;;4984620;28;20473;-83
2022/10/29 11:04:02;;;;;;;16.47;6.30;;;20.10;97.00;;;;;;4985567;28;20480;-83
2022/10/29 11:06:32;;;;;;;18.33;7.60;;;20.20;96.60;;;;;;4986014;28;20466;-83
2022/10/29 11:09:05;;;;;;;19.07;5.20;;;20.50;95.70;;;;;;4985706;28;20467;-83
2022/10/29 11:11:37;;;;;;;15.73;5.87;;;20.60;95.30;;;;;;4985263;28;20481;-83
2022/10/29 11:14:10;;;;;;;13.23;6.33;;;20.80;95.40;;;;;;4985355;28;20466;-83
2022/10/29 11:16:45;;;;;;;11.90;5.67;;;21.30;94.20;;;;;;4985091;28;20460;-83
2022/10/29 11:19:20;;;;;;;20.97;6.00;;;21.90;93.60;;;;;;4985824;28;20485;-83
2022/10/29 11:22:01;;;;;;;14.20;8.07;;;22.30;92.60;;;;;;4983972;28;20476;-83
2022/10/29 11:24:38;;;;;;;16.83;5.37;;;22.70;91.70;;;;;;4984517;28;20479;-83
2022/10/29 11:27:20;;;;;;;12.23;5.90;;;23.00;90.80;;;;;;4983811;28;20459;-83
2022/10/29 11:29:53;;;;;;;13.57;6.20;;;23.70;89.40;;;;;;4985722;28;20486;-82
2022/10/29 11:32:25;;;;;;;19.37;5.33;;;23.90;87.50;;;;;;4983713;28;20489;-83
2022/10/29 11:35:02;;;;;;;15.73;6.30;;;23.60;85.90;;;;;;4985099;28;20458;-83
2022/10/29 11:37:35;;;;;;;24.20;5.80;;;23.80;86.10;;;;;;4984486;28;20509;-83
2022/10/29 11:40:13;;;;;;;16.23;6.30;;;24.10;84.10;;;;;;4985895;28;20446;-83
2022/10/29 11:42:41;;;;;;;12.60;4.57;;;24.30;83.00;;;;;;4983956;28;20479;-82
2022/10/29 11:45:16;;;;;;;18.43;6.33;;;24.60;81.10;;;;;;4988356;28;20447;-83
2022/10/29 11:48:01;;;;;;;19.70;6.87;;;24.50;81.70;;;;;;4995160;28;20454;-82
2022/10/29 11:50:37;;;;;;;13.53;5.30;;;24.20;78.80;;;;;;4994525;28;20490;-83
2022/10/29 11:53:18;;;;;;;16.77;5.80;;;24.20;82.00;;;;;;4994064;28;20563;-81
2022/10/29 11:55:55;;;;;;;16.83;6.13;;;24.30;82.10;;;;;;4988264;28;20834;-85
2022/10/29 11:58:32;;;;;;;14.73;5.50;;;24.30;80.40;;;;;;4986643;28;20518;-83
2022/10/29 12:01:05;;;;;;;16.90;5.17;;;23.90;80.60;;;;;;4982906;28;20470;-84
2022/10/29 12:03:48;;;;;;;12.57;6.10;;;23.70;82.20;;;;;;4983972;28;20458;-84
2022/10/29 12:06:20;;;;;;;16.73;6.67;;;23.40;82.40;;;;;;4985515;28;20455;-83
2022/10/29 12:09:00;;;;;;;16.60;5.60;;;23.30;84.50;;;;;;4984490;28;20470;-83
2022/10/29 12:11:35;;;;;;;16.33;6.03;;;23.10;85.50;;;;;;4984192;28;20486;-83
2022/10/29 12:14:18;;;;;;;20.13;8.80;;;23.30;84.70;;;;;;4984240;28;20464;-83
2022/10/29 12:16:53;;;;;;;20.40;6.83;;;24.00;82.00;;;;;;4984833;28;20458;-84
2022/10/29 12:19:32;;;;;;;15.37;5.17;;;24.60;81.60;;;;;;4984389;28;20986;-84
2022/10/29 12:22:11;;;;;;;14.77;6.40;;;25.10;77.80;;;;;;4983131;28;20475;-84
2022/10/29 12:24:53;;;;;;;19.50;5.53;;;25.60;75.10;;;;;;4983085;28;20557;-84
2022/10/29 12:27:27;;;;;;;11.80;6.43;;;25.70;72.80;;;;;;4983912;28;20466;-83
2022/10/29 12:30:00;;;;;;;11.20;5.10;;;25.60;75.10;;;;;;4982193;28;20474;-84
2022/10/29 12:32:33;;;;;;;13.97;4.83;;;26.20;72.80;;;;;;4982300;28;20475;-83
2022/10/29 12:35:06;;;;;;;11.83;5.57;;;26.50;69.80;;;;;;4981766;28;20454;-84